Time,TemperatureF,DewpointF,PressureIn,WindDirection,WindDirectionDegrees,WindSpeedMPH,WindSpeedGustMPH,Humidity,HourlyPrecipIn,Conditions,Clouds,dailyrainin,SoftwareType,DateUTC
2013-02-07 00:04:00,25.2,13.2,30.02,North,353,0.0,0.0,60,0.00,,---,0.00,VWS V14.01,2013-02-07 07:04:00,
2013-02-07 00:10:00,25.2,13.6,30.02,North,353,0.0,0.0,61,0.00,,---,0.00,VWS V14.01,2013-02-07 07:10:00,
2013-02-07 00:16:00,25.2,13.6,30.02,North,353,0.0,0.0,61,0.00,,---,0.00,VWS V14.01,2013-02-07 07:16:00,
2013-02-07 00:22:00,25.2,13.6,30.02,North,353,0.0,0.0,61,0.00,,---,0.00,VWS V14.01,2013-02-07 07:22:00,
2013-02-07 00:27:00,25.2,13.6,30.02,North,353,0.0,0.0,61,0.00,,---,0.00,VWS V14.01,2013-02-07 07:27:00,
2013-02-07 00:33:00,25.2,13.6,30.02,North,353,0.0,0.0,61,0.00,,---,0.00,VWS V14.01,2013-02-07 07:33:00,
2013-02-07 00:39:00,25.2,13.6,30.02,North,353,0.0,0.0,61,0.00,,---,0.00,VWS V14.01,2013-02-07 07:39:00,
2013-02-07 00:45:00,25.2,13.6,30.02,North,353,0.0,0.0,61,0.00,,---,0.00,VWS V14.01,2013-02-07 07:45:00,
2013-02-07 00:51:00,25.2,13.6,30.02,North,353,0.0,0.0,61,0.00,,---,0.00,VWS V14.01,2013-02-07 07:51:00,
2013-02-07 00:56:00,25.2,13.6,30.02,North,353,0.0,0.0,61,0.00,,---,0.00,VWS V14.01,2013-02-07 07:56:00,
2013-02-07 01:02:00,25.2,13.6,30.02,North,353,0.0,0.0,61,0.00,,---,0.00,VWS V14.01,2013-02-07 08:02:00,
2013-02-07 01:07:00,25.2,13.6,30.02,North,353,0.0,0.0,61,0.00,,---,0.00,VWS V14.01,2013-02-07 08:07:00,
2013-02-07 01:13:00,25.0,13.4,30.02,North,353,0.0,0.0,61,0.00,,---,0.00,VWS V14.01,2013-02-07 08:13:00,
2013-02-07 01:19:00,24.8,13.3,30.02,North,353,0.0,0.0,61,0.00,,---,0.00,VWS V14.01,2013-02-07 08:19:00,
2013-02-07 01:25:00,24.8,13.3,30.02,North,353,0.0,0.0,61,0.00,,---,0.00,VWS V14.01,2013-02-07 08:25:00,
2013-02-07 01:30:00,24.8,13.3,30.02,North,353,0.0,0.0,61,0.00,,---,0.00,VWS V14.01,2013-02-07 08:30:00,
2013-02-07 01:36:00,24.6,13.1,30.02,North,353,0.0,0.0,61,0.00,,---,0.00,VWS V14.01,2013-02-07 08:36:00,
2013-02-07 01:41:00,24.6,13.1,30.02,North,353,0.0,0.0,61,0.00,,---,0.00,VWS V14.01,2013-02-07 08:41:00,
2013-02-07 01:47:00,24.4,12.9,30.02,North,353,0.0,0.0,61,0.00,,---,0.00,VWS V14.01,2013-02-07 08:47:00,
2013-02-07 01:53:00,24.3,12.4,30.02,North,353,0.0,0.0,60,0.00,,---,0.00,VWS V14.01,2013-02-07 08:53:00,
2013-02-07 01:59:00,23.9,12.1,30.02,North,353,0.0,0.0,60,0.00,,---,0.00,VWS V14.01,2013-02-07 08:59:00,
2013-02-07 02:05:00,23.5,11.7,30.02,North,353,0.0,0.0,60,0.00,,---,0.00,VWS V14.01,2013-02-07 09:05:00,
2013-02-07 02:11:00,23.4,11.5,30.02,North,353,0.0,0.0,60,0.00,,---,0.00,VWS V14.01,2013-02-07 09:11:00,
2013-02-07 02:17:00,23.2,11.0,30.02,North,353,0.0,0.0,59,0.00,,---,0.00,VWS V14.01,2013-02-07 09:17:00,
2013-02-07 02:22:00,23.0,10.8,30.02,North,353,0.0,0.0,59,0.00,,---,0.00,VWS V14.01,2013-02-07 09:22:00,
2013-02-07 02:28:00,22.6,10.1,30.02,North,353,0.0,0.0,58,0.00,,---,0.00,VWS V14.01,2013-02-07 09:28:00,
2013-02-07 02:33:00,22.3,9.4,30.02,North,353,0.0,0.0,57,0.00,,---,0.00,VWS V14.01,2013-02-07 09:33:00,
2013-02-07 02:39:00,22.1,9.2,30.02,North,353,0.0,0.0,57,0.00,,---,0.00,VWS V14.01,2013-02-07 09:39:00,
2013-02-07 02:45:00,21.7,8.5,30.02,NE,39,0.0,3.6,56,0.00,,---,0.00,VWS V14.01,2013-02-07 09:45:00,
2013-02-07 02:51:00,21.6,8.3,30.02,ENE,58,0.0,2.2,56,0.00,,---,0.00,VWS V14.01,2013-02-07 09:51:00,
2013-02-07 02:57:00,21.2,7.6,30.02,ENE,61,0.0,0.0,55,0.00,,---,0.00,VWS V14.01,2013-02-07 09:57:00,
2013-02-07 03:03:00,21.0,7.0,30.02,ENE,62,0.0,3.1,54,0.00,,---,0.00,VWS V14.01,2013-02-07 10:03:00,
2013-02-07 03:09:00,20.8,6.8,30.02,ENE,61,0.0,0.0,54,0.00,,---,0.00,VWS V14.01,2013-02-07 10:09:00,
2013-02-07 03:15:00,20.3,5.9,30.02,ENE,65,0.0,0.0,53,0.00,,---,0.00,VWS V14.01,2013-02-07 10:15:00,
2013-02-07 03:20:00,20.1,5.7,30.02,ENE,57,0.0,0.0,53,0.00,,---,0.00,VWS V14.01,2013-02-07 10:20:00,
2013-02-07 03:26:00,19.9,5.6,30.02,NE,45,0.0,0.0,53,0.00,,---,0.00,VWS V14.01,2013-02-07 10:26:00,
2013-02-07 03:31:00,19.8,5.4,30.02,ENE,57,0.0,0.0,53,0.00,,---,0.00,VWS V14.01,2013-02-07 10:31:00,
2013-02-07 03:37:00,19.6,5.2,30.02,ENE,57,0.0,0.0,53,0.00,,---,0.00,VWS V14.01,2013-02-07 10:37:00,
2013-02-07 03:43:00,19.2,4.9,30.02,South,180,0.0,0.0,53,0.00,,---,0.00,VWS V14.01,2013-02-07 10:43:00,
2013-02-07 03:48:00,18.7,4.4,30.02,South,170,0.0,0.0,53,0.00,,---,0.00,VWS V14.01,2013-02-07 10:48:00,
2013-02-07 03:53:00,18.5,4.2,30.02,SSE,160,0.0,0.0,53,0.00,,---,0.00,VWS V14.01,2013-02-07 10:53:00,
2013-02-07 03:58:00,18.5,4.2,30.02,SSE,160,0.0,0.0,53,0.00,,---,0.00,VWS V14.01,2013-02-07 10:58:00,
2013-02-07 04:04:00,18.1,3.9,30.02,SSE,160,0.0,0.0,53,0.00,,---,0.00,VWS V14.01,2013-02-07 11:04:00,
2013-02-07 04:10:00,18.0,3.7,30.02,SE,139,0.0,0.0,53,0.00,,---,0.00,VWS V14.01,2013-02-07 11:10:00,
2013-02-07 04:16:00,17.6,3.4,30.02,SSE,155,0.0,0.0,53,0.00,,---,0.00,VWS V14.01,2013-02-07 11:16:00,
2013-02-07 04:21:00,17.4,3.6,30.05,South,189,0.0,0.0,54,0.00,,---,0.00,VWS V14.01,2013-02-07 11:21:00,
2013-02-07 04:27:00,17.1,2.9,30.05,SW,230,0.0,0.0,53,0.00,,---,0.00,VWS V14.01,2013-02-07 11:27:00,
2013-02-07 04:33:00,16.9,2.7,30.05,SSW,197,0.0,0.0,53,0.00,,---,0.00,VWS V14.01,2013-02-07 11:33:00,
2013-02-07 04:38:00,16.7,2.5,30.05,South,181,0.0,0.0,53,0.00,,---,0.00,VWS V14.01,2013-02-07 11:38:00,
2013-02-07 04:45:00,16.2,2.0,30.05,South,182,0.0,0.0,53,0.00,,---,0.00,VWS V14.01,2013-02-07 11:45:00,
2013-02-07 04:51:00,16.0,1.9,30.05,South,188,0.0,0.0,53,0.00,,---,0.00,VWS V14.01,2013-02-07 11:51:00,
2013-02-07 04:56:00,15.8,1.7,30.05,South,183,4.0,4.0,53,0.00,,---,0.00,VWS V14.01,2013-02-07 11:56:00,
2013-02-07 05:02:00,15.1,1.0,30.05,SE,142,0.0,0.0,53,0.00,,---,0.00,VWS V14.01,2013-02-07 12:02:00,
2013-02-07 05:08:00,14.7,1.1,30.05,SSE,147,0.0,0.0,54,0.00,,---,0.00,VWS V14.01,2013-02-07 12:08:00,
2013-02-07 05:13:00,14.5,0.9,30.05,South,176,5.4,5.4,54,0.00,,---,0.00,VWS V14.01,2013-02-07 12:13:00,
2013-02-07 05:18:00,14.5,0.9,30.05,SSW,195,0.0,0.0,54,0.00,,---,0.00,VWS V14.01,2013-02-07 12:18:00,
2013-02-07 05:24:00,14.2,0.6,30.05,SSW,200,2.7,4.9,54,0.00,,---,0.00,VWS V14.01,2013-02-07 12:24:00,
2013-02-07 05:30:00,13.8,0.3,30.05,South,175,2.7,4.0,54,0.00,,---,0.00,VWS V14.01,2013-02-07 12:30:00,
2013-02-07 05:35:00,13.6,0.1,30.05,SSE,163,0.0,2.7,54,0.00,,---,0.00,VWS V14.01,2013-02-07 12:35:00,
2013-02-07 05:40:00,13.5,-0.1,30.05,South,172,4.0,4.0,54,0.00,,---,0.00,VWS V14.01,2013-02-07 12:40:00,
2013-02-07 05:45:00,13.3,-0.2,30.05,SSE,159,2.2,3.6,54,0.00,,---,0.00,VWS V14.01,2013-02-07 12:45:00,
2013-02-07 05:51:00,12.9,-0.6,30.05,South,178,5.4,5.4,54,0.00,,---,0.00,VWS V14.01,2013-02-07 12:51:00,
2013-02-07 05:57:00,12.6,-0.9,30.05,SSW,199,4.9,5.4,54,0.00,,---,0.00,VWS V14.01,2013-02-07 12:57:00,
2013-02-07 06:03:00,12.2,-1.3,30.05,SSW,193,4.9,5.4,54,0.00,,---,0.00,VWS V14.01,2013-02-07 13:03:00,
2013-02-07 06:09:00,11.8,-1.6,30.05,South,184,2.7,2.7,54,0.00,,---,0.00,VWS V14.01,2013-02-07 13:09:00,
2013-02-07 06:15:00,11.3,-2.1,30.05,SSW,200,2.7,2.7,54,0.00,,---,0.00,VWS V14.01,2013-02-07 13:15:00,
2013-02-07 06:21:00,10.8,-2.6,30.05,SSW,213,5.4,5.4,54,0.00,,---,0.00,VWS V14.01,2013-02-07 13:21:00,
2013-02-07 06:26:00,10.8,-2.6,30.05,SSW,194,4.5,6.3,54,0.00,,---,0.00,VWS V14.01,2013-02-07 13:26:00,
2013-02-07 06:32:00,10.4,-2.9,30.05,South,181,4.0,5.4,54,0.00,,---,0.00,VWS V14.01,2013-02-07 13:32:00,
2013-02-07 06:37:00,10.2,-3.1,30.05,South,188,5.8,6.3,54,0.00,,---,0.00,VWS V14.01,2013-02-07 13:37:00,
2013-02-07 06:43:00,10.2,-3.1,30.05,South,189,4.5,5.8,54,0.00,,---,0.00,VWS V14.01,2013-02-07 13:43:00,
2013-02-07 06:49:00,10.0,-3.3,30.05,South,172,5.8,5.8,54,0.00,,---,0.00,VWS V14.01,2013-02-07 13:49:00,
2013-02-07 06:55:00,9.7,-3.6,30.05,SSW,199,5.8,5.8,54,0.00,,---,0.00,VWS V14.01,2013-02-07 13:55:00,
2013-02-07 07:00:00,9.7,-3.6,30.05,South,173,3.6,5.4,54,0.00,,---,0.00,VWS V14.01,2013-02-07 14:00:00,
2013-02-07 07:05:00,9.5,-3.8,30.05,South,180,4.9,6.3,54,0.00,,---,0.00,VWS V14.01,2013-02-07 14:05:00,
2013-02-07 07:11:00,9.5,-3.8,30.05,SW,225,4.9,5.8,54,0.00,,---,0.00,VWS V14.01,2013-02-07 14:11:00,
2013-02-07 07:16:00,9.5,-3.8,30.05,South,171,4.0,5.4,54,0.00,,---,0.00,VWS V14.01,2013-02-07 14:16:00,
2013-02-07 07:21:00,9.3,-4.0,30.08,SSW,201,4.9,5.4,54,0.00,,---,0.00,VWS V14.01,2013-02-07 14:21:00,
2013-02-07 07:27:00,9.1,-4.1,30.08,South,177,2.7,6.3,54,0.00,,---,0.00,VWS V14.01,2013-02-07 14:27:00,
2013-02-07 07:32:00,9.3,-4.0,30.08,SSW,196,3.6,3.6,54,0.00,,---,0.00,VWS V14.01,2013-02-07 14:32:00,
2013-02-07 07:38:00,9.3,-4.0,30.08,South,189,6.3,7.2,54,0.00,,---,0.00,VWS V14.01,2013-02-07 14:38:00,
2013-02-07 07:43:00,8.8,-4.5,30.08,SSE,161,4.0,5.4,54,0.00,,---,0.00,VWS V14.01,2013-02-07 14:43:00,
2013-02-07 07:49:00,8.8,-4.5,30.08,SSW,203,3.1,4.0,54,0.00,,---,0.00,VWS V14.01,2013-02-07 14:49:00,
2013-02-07 07:55:00,8.6,-4.6,30.08,SSW,207,6.3,6.3,54,0.00,,---,0.00,VWS V14.01,2013-02-07 14:55:00,
2013-02-07 08:01:00,8.1,-5.1,30.08,SSW,207,5.4,6.7,54,0.00,,---,0.00,VWS V14.01,2013-02-07 15:01:00,
2013-02-07 08:07:00,7.7,-5.5,30.08,SSE,168,8.1,8.1,54,0.00,,---,0.00,VWS V14.01,2013-02-07 15:07:00,
2013-02-07 08:12:00,7.7,-5.5,30.08,SW,216,3.1,5.8,54,0.00,,---,0.00,VWS V14.01,2013-02-07 15:12:00,
2013-02-07 08:18:00,7.9,-5.3,30.08,SSW,195,4.0,4.9,54,0.00,,---,0.00,VWS V14.01,2013-02-07 15:18:00,
2013-02-07 08:23:00,7.9,-5.3,30.08,SW,218,5.4,5.4,54,0.00,,---,0.00,VWS V14.01,2013-02-07 15:23:00,
2013-02-07 08:29:00,8.1,-5.1,30.08,SSW,202,4.0,5.4,54,0.00,,---,0.00,VWS V14.01,2013-02-07 15:29:00,
2013-02-07 08:35:00,8.2,-5.0,30.08,SSW,192,4.0,5.4,54,0.00,,---,0.00,VWS V14.01,2013-02-07 15:35:00,
2013-02-07 08:40:00,8.6,-4.6,30.08,South,180,6.3,6.3,54,0.00,,---,0.00,VWS V14.01,2013-02-07 15:40:00,
2013-02-07 08:45:00,8.6,-4.6,30.08,South,183,4.0,4.0,54,0.00,,---,0.00,VWS V14.01,2013-02-07 15:45:00,
2013-02-07 08:50:00,8.8,-4.5,30.08,SSW,196,6.3,6.3,54,0.00,,---,0.00,VWS V14.01,2013-02-07 15:50:00,
2013-02-07 08:56:00,9.1,-4.1,30.08,SW,215,5.4,6.3,54,0.00,,---,0.00,VWS V14.01,2013-02-07 15:56:00,
2013-02-07 09:01:00,9.3,-4.0,30.08,SSW,193,6.3,6.3,54,0.00,,---,0.00,VWS V14.01,2013-02-07 16:01:00,
2013-02-07 09:07:00,9.5,-3.8,30.08,SSW,194,6.3,8.3,54,0.00,,---,0.00,VWS V14.01,2013-02-07 16:07:00,
2013-02-07 09:13:00,10.0,-3.3,30.08,South,184,4.9,6.7,54,0.00,,---,0.00,VWS V14.01,2013-02-07 16:13:00,
2013-02-07 09:19:00,10.4,-2.9,30.08,South,175,6.3,6.7,54,0.00,,---,0.00,VWS V14.01,2013-02-07 16:19:00,
2013-02-07 09:25:00,11.1,-2.3,30.08,South,187,7.6,7.6,54,0.00,,---,0.00,VWS V14.01,2013-02-07 16:25:00,
2013-02-07 09:30:00,11.5,-1.9,30.08,South,180,5.4,5.4,54,0.00,,---,0.00,VWS V14.01,2013-02-07 16:30:00,
2013-02-07 09:35:00,11.8,-1.6,30.08,South,177,4.0,6.3,54,0.00,,---,0.00,VWS V14.01,2013-02-07 16:35:00,
2013-02-07 09:40:00,12.2,-1.3,30.08,South,176,3.6,4.9,54,0.00,,---,0.00,VWS V14.01,2013-02-07 16:40:00,
2013-02-07 09:46:00,12.9,-0.6,30.08,SSE,165,5.4,6.3,54,0.00,,---,0.00,VWS V14.01,2013-02-07 16:46:00,
2013-02-07 09:52:00,13.8,0.3,30.08,South,184,4.9,7.6,54,0.00,,---,0.00,VWS V14.01,2013-02-07 16:52:00,
2013-02-07 09:57:00,14.2,0.6,30.08,South,169,0.0,0.0,54,0.00,,---,0.00,VWS V14.01,2013-02-07 16:57:00,
2013-02-07 10:02:00,14.4,0.0,30.08,ESE,117,0.0,0.0,52,0.00,,---,0.00,VWS V14.01,2013-02-07 17:02:00,
2013-02-07 10:08:00,14.4,0.0,30.08,ESE,103,0.0,0.0,52,0.00,,---,0.00,VWS V14.01,2013-02-07 17:08:00,
2013-02-07 10:14:00,14.2,-0.6,30.08,ESE,103,0.0,0.0,51,0.00,,---,0.00,VWS V14.01,2013-02-07 17:14:00,
2013-02-07 10:20:00,14.2,-0.6,30.08,ESE,103,0.0,0.0,51,0.00,,---,0.00,VWS V14.01,2013-02-07 17:20:00,
2013-02-07 10:26:00,14.5,-0.7,30.08,East,94,0.0,0.0,50,0.00,,---,0.00,VWS V14.01,2013-02-07 17:26:00,
2013-02-07 10:32:00,14.5,-0.7,30.08,East,86,0.0,0.0,50,0.00,,---,0.00,VWS V14.01,2013-02-07 17:32:00,
2013-02-07 10:37:00,14.9,-0.4,30.08,ENE,68,0.0,0.0,50,0.00,,---,0.00,VWS V14.01,2013-02-07 17:37:00,
2013-02-07 10:43:00,15.1,0.2,30.08,ENE,65,0.0,0.0,51,0.00,,---,0.00,VWS V14.01,2013-02-07 17:43:00,
2013-02-07 10:48:00,15.4,0.6,30.08,ENE,64,0.0,0.0,51,0.00,,---,0.00,VWS V14.01,2013-02-07 17:48:00,
2013-02-07 10:54:00,16.3,1.4,30.08,ENE,58,0.0,0.0,51,0.00,,---,0.00,VWS V14.01,2013-02-07 17:54:00,
2013-02-07 11:00:00,16.9,1.9,30.08,NE,56,0.0,0.0,51,0.00,,---,0.00,VWS V14.01,2013-02-07 18:00:00,
2013-02-07 11:06:00,17.4,2.8,30.08,North,353,0.0,0.0,52,0.00,,---,0.00,VWS V14.01,2013-02-07 18:06:00,
2013-02-07 11:12:00,18.0,3.3,30.08,North,6,0.0,0.0,52,0.00,,---,0.00,VWS V14.01,2013-02-07 18:12:00,
2013-02-07 11:18:00,18.5,3.8,30.08,NNE,32,0.0,0.0,52,0.00,,---,0.00,VWS V14.01,2013-02-07 18:18:00,
2013-02-07 11:23:00,19.2,4.5,30.08,NNE,31,3.1,3.6,52,0.00,,---,0.00,VWS V14.01,2013-02-07 18:23:00,
2013-02-07 11:29:00,20.1,4.9,30.08,NNE,22,0.0,0.0,51,0.00,,---,0.00,VWS V14.01,2013-02-07 18:29:00,
2013-02-07 11:35:00,20.8,5.1,30.08,NNE,25,0.0,0.0,50,0.00,,---,0.00,VWS V14.01,2013-02-07 18:35:00,
2013-02-07 11:41:00,21.6,4.9,30.08,North,349,0.0,0.0,48,0.00,,---,0.00,VWS V14.01,2013-02-07 18:41:00,
2013-02-07 11:46:00,22.1,5.4,30.08,NE,38,3.6,4.0,48,0.00,,---,0.00,VWS V14.01,2013-02-07 18:46:00,
2013-02-07 11:52:00,22.8,5.6,30.08,North,10,0.0,0.0,47,0.00,,---,0.00,VWS V14.01,2013-02-07 18:52:00,
2013-02-07 11:57:00,23.2,5.5,30.08,NNW,331,4.0,4.9,46,0.00,,---,0.00,VWS V14.01,2013-02-07 18:57:00,
2013-02-07 12:03:00,23.5,5.8,30.05,NNE,12,3.1,3.1,46,0.00,,---,0.00,VWS V14.01,2013-02-07 19:03:00,
2013-02-07 12:09:00,24.1,6.3,30.05,NNW,341,4.0,7.6,46,0.00,,---,0.00,VWS V14.01,2013-02-07 19:09:00,
2013-02-07 12:15:00,24.6,6.3,30.05,NW,311,0.0,3.6,45,0.00,,---,0.00,VWS V14.01,2013-02-07 19:15:00,
2013-02-07 12:20:00,25.2,6.3,30.05,NNE,21,0.0,0.0,44,0.00,,---,0.00,VWS V14.01,2013-02-07 19:20:00,
2013-02-07 12:26:00,25.5,6.7,30.05,NW,311,4.9,4.9,44,0.00,,---,0.00,VWS V14.01,2013-02-07 19:26:00,
2013-02-07 12:32:00,26.1,6.6,30.05,North,353,3.6,6.3,43,0.00,,---,0.00,VWS V14.01,2013-02-07 19:32:00,
2013-02-07 12:38:00,26.2,6.8,30.05,NNW,333,3.1,4.0,43,0.00,,---,0.00,VWS V14.01,2013-02-07 19:38:00,
2013-02-07 12:43:00,26.6,7.1,30.05,NW,316,4.0,4.0,43,0.00,,---,0.00,VWS V14.01,2013-02-07 19:43:00,
2013-02-07 12:49:00,27.0,6.9,30.05,NNW,330,2.7,3.1,42,0.00,,---,0.00,VWS V14.01,2013-02-07 19:49:00,
2013-02-07 12:54:00,27.3,7.3,30.05,North,0,5.4,6.3,42,0.00,,---,0.00,VWS V14.01,2013-02-07 19:54:00,
2013-02-07 13:00:00,27.7,7.6,30.05,NNW,329,2.2,5.4,42,0.00,,---,0.00,VWS V14.01,2013-02-07 20:00:00,
2013-02-07 13:06:00,28.0,7.9,30.05,NNW,337,2.7,4.9,42,0.00,,---,0.00,VWS V14.01,2013-02-07 20:06:00,
2013-02-07 13:12:00,28.4,9.3,30.05,NW,326,3.1,5.4,44,0.00,,---,0.00,VWS V14.01,2013-02-07 20:12:00,
2013-02-07 13:18:00,28.4,10.8,30.05,NNW,330,3.6,4.0,47,0.00,,---,0.00,VWS V14.01,2013-02-07 20:18:00,
2013-02-07 13:23:00,28.6,11.4,30.05,North,357,2.7,4.0,48,0.00,,---,0.00,VWS V14.01,2013-02-07 20:23:00,
2013-02-07 13:28:00,28.6,11.9,30.05,NNW,335,2.7,5.4,49,0.00,,---,0.00,VWS V14.01,2013-02-07 20:28:00,
2013-02-07 13:34:00,28.8,12.5,30.02,North,353,2.7,2.7,50,0.00,,---,0.00,VWS V14.01,2013-02-07 20:34:00,
2013-02-07 13:39:00,28.9,12.6,30.02,NNW,329,4.9,4.9,50,0.00,,---,0.00,VWS V14.01,2013-02-07 20:39:00,
2013-02-07 13:44:00,29.1,12.8,30.02,NW,324,3.6,7.6,50,0.00,,---,0.00,VWS V14.01,2013-02-07 20:44:00,
2013-02-07 13:50:00,29.3,13.4,30.02,NNW,342,3.1,3.6,51,0.00,,---,0.00,VWS V14.01,2013-02-07 20:50:00,
2013-02-07 13:55:00,29.5,13.6,30.02,North,9,2.7,3.6,51,0.00,,---,0.00,VWS V14.01,2013-02-07 20:55:00,
2013-02-07 14:01:00,29.7,13.8,30.02,North,353,4.0,5.4,51,0.00,,---,0.00,VWS V14.01,2013-02-07 21:01:00,
2013-02-07 14:06:00,29.8,13.9,30.02,North,350,3.1,8.3,51,0.00,,---,0.00,VWS V14.01,2013-02-07 21:06:00,
2013-02-07 14:11:00,29.8,13.9,30.02,NNW,337,3.1,3.6,51,0.00,,---,0.00,VWS V14.01,2013-02-07 21:11:00,
2013-02-07 14:17:00,30.2,13.8,30.02,NNW,348,3.1,5.8,50,0.00,,---,0.00,VWS V14.01,2013-02-07 21:17:00,
2013-02-07 14:22:00,30.4,14.4,30.02,NNW,335,5.4,5.4,51,0.00,,---,0.00,VWS V14.01,2013-02-07 21:22:00,
2013-02-07 14:28:00,30.7,14.8,30.02,WNW,302,4.0,4.9,51,0.00,,---,0.00,VWS V14.01,2013-02-07 21:28:00,
2013-02-07 14:33:00,30.9,14.5,30.02,NW,322,3.1,7.6,50,0.00,,---,0.00,VWS V14.01,2013-02-07 21:33:00,
2013-02-07 14:39:00,31.1,14.6,30.02,NNW,338,9.2,9.2,50,0.00,,---,0.00,VWS V14.01,2013-02-07 21:39:00,
2013-02-07 14:44:00,31.1,14.6,30.02,NNW,339,3.6,5.8,50,0.00,,---,0.00,VWS V14.01,2013-02-07 21:44:00,
2013-02-07 14:50:00,31.5,15.0,30.02,NW,308,3.1,8.1,50,0.00,,---,0.00,VWS V14.01,2013-02-07 21:50:00,
2013-02-07 14:56:00,31.6,15.1,30.02,NW,322,3.6,5.8,50,0.00,,---,0.00,VWS V14.01,2013-02-07 21:56:00,
2013-02-07 15:01:00,32.0,14.1,30.02,NNE,32,4.0,8.3,47,0.00,,---,0.00,VWS V14.01,2013-02-07 22:01:00,
2013-02-07 15:07:00,32.2,15.2,30.02,North,2,5.4,5.8,49,0.00,,---,0.00,VWS V14.01,2013-02-07 22:07:00,
2013-02-07 15:13:00,32.5,15.5,30.02,NNW,337,4.0,4.0,49,0.00,,---,0.00,VWS V14.01,2013-02-07 22:13:00,
2013-02-07 15:19:00,33.1,15.5,30.02,North,349,2.2,4.0,48,0.00,,---,0.00,VWS V14.01,2013-02-07 22:19:00,
2013-02-07 15:25:00,33.4,15.4,30.02,NNW,331,3.1,3.6,47,0.00,,---,0.00,VWS V14.01,2013-02-07 22:25:00,
2013-02-07 15:31:00,33.8,15.7,30.02,NNE,14,2.7,8.1,47,0.00,,---,0.00,VWS V14.01,2013-02-07 22:31:00,
2013-02-07 15:36:00,34.3,16.2,30.02,NW,316,0.0,2.7,47,0.00,,---,0.00,VWS V14.01,2013-02-07 22:36:00,
2013-02-07 15:41:00,34.7,17.0,30.02,NW,316,0.0,0.0,48,0.00,,---,0.00,VWS V14.01,2013-02-07 22:41:00,
2013-02-07 15:47:00,35.4,17.2,30.02,NW,317,5.8,5.8,47,0.00,,---,0.00,VWS V14.01,2013-02-07 22:47:00,
2013-02-07 15:53:00,35.8,17.0,30.02,North,0,0.0,4.0,46,0.00,,---,0.00,VWS V14.01,2013-02-07 22:53:00,
2013-02-07 15:59:00,36.3,17.5,30.02,NNW,341,0.0,4.0,46,0.00,,---,0.00,VWS V14.01,2013-02-07 22:59:00,
2013-02-07 16:04:00,36.7,18.4,30.02,NW,321,0.0,0.0,47,0.00,,---,0.00,VWS V14.01,2013-02-07 23:04:00,
2013-02-07 16:10:00,36.9,18.0,30.02,WNW,299,2.2,3.1,46,0.00,,---,0.00,VWS V14.01,2013-02-07 23:10:00,
2013-02-07 16:16:00,37.2,18.4,30.02,NNW,338,3.1,5.4,46,0.00,,---,0.00,VWS V14.01,2013-02-07 23:16:00,
2013-02-07 16:22:00,37.4,18.5,30.02,NNW,341,3.1,4.0,46,0.00,,---,0.00,VWS V14.01,2013-02-07 23:22:00,
2013-02-07 16:28:00,37.4,18.5,30.02,NW,323,0.0,0.0,46,0.00,,---,0.00,VWS V14.01,2013-02-07 23:28:00,
2013-02-07 16:33:00,37.6,18.7,30.02,NNW,341,0.0,0.0,46,0.00,,---,0.00,VWS V14.01,2013-02-07 23:33:00,
2013-02-07 16:38:00,37.6,17.7,30.02,NNW,327,0.0,0.0,44,0.00,,---,0.00,VWS V14.01,2013-02-07 23:38:00,
2013-02-07 16:43:00,37.2,18.4,30.02,NNW,330,0.0,0.0,46,0.00,,---,0.00,VWS V14.01,2013-02-07 23:43:00,
2013-02-07 16:48:00,36.5,17.7,30.02,NNW,330,0.0,0.0,46,0.00,,---,0.00,VWS V14.01,2013-02-07 23:48:00,
2013-02-07 16:54:00,35.8,17.5,30.02,NNW,330,0.0,0.0,47,0.00,,---,0.00,VWS V14.01,2013-02-07 23:54:00,
2013-02-07 17:00:00,35.2,17.5,30.02,NNW,330,0.0,0.0,48,0.00,,---,0.00,VWS V14.01,2013-02-08 00:00:00,
2013-02-07 17:06:00,34.7,18.0,30.02,NNW,330,0.0,0.0,50,0.00,,---,0.00,VWS V14.01,2013-02-08 00:06:00,
2013-02-07 17:12:00,34.2,17.9,30.02,NNW,330,0.0,0.0,51,0.00,,---,0.00,VWS V14.01,2013-02-08 00:12:00,
2013-02-07 17:18:00,33.6,17.4,30.02,NNW,330,0.0,0.0,51,0.00,,---,0.00,VWS V14.01,2013-02-08 00:18:00,
2013-02-07 17:24:00,33.3,16.6,30.02,NNW,330,0.0,0.0,50,0.00,,---,0.00,VWS V14.01,2013-02-08 00:24:00,
2013-02-07 17:29:00,32.9,16.8,30.02,NNW,330,0.0,0.0,51,0.00,,---,0.00,VWS V14.01,2013-02-08 00:29:00,
2013-02-07 17:35:00,32.5,16.4,30.02,NNW,330,0.0,0.0,51,0.00,,---,0.00,VWS V14.01,2013-02-08 00:35:00,
2013-02-07 17:41:00,32.2,16.5,30.02,NNW,330,0.0,0.0,52,0.00,,---,0.00,VWS V14.01,2013-02-08 00:41:00,
2013-02-07 17:47:00,31.8,16.2,30.02,NNW,330,0.0,0.0,52,0.00,,---,0.00,VWS V14.01,2013-02-08 00:47:00,
2013-02-07 17:53:00,31.5,15.4,30.02,NNW,330,0.0,0.0,51,0.00,,---,0.00,VWS V14.01,2013-02-08 00:53:00,
2013-02-07 17:58:00,31.1,15.5,30.02,NNW,330,0.0,0.0,52,0.00,,---,0.00,VWS V14.01,2013-02-08 00:58:00,
2013-02-07 18:03:00,30.7,15.6,30.02,NNW,330,0.0,0.0,53,0.00,,---,0.00,VWS V14.01,2013-02-08 01:03:00,
2013-02-07 18:09:00,30.4,15.7,30.02,NNW,330,0.0,0.0,54,0.00,,---,0.00,VWS V14.01,2013-02-08 01:09:00,
2013-02-07 18:15:00,30.0,15.4,30.02,NNW,330,0.0,0.0,54,0.00,,---,0.00,VWS V14.01,2013-02-08 01:15:00,
2013-02-07 18:20:00,29.7,14.6,30.02,NNW,330,0.0,0.0,53,0.00,,---,0.00,VWS V14.01,2013-02-08 01:20:00,
2013-02-07 18:26:00,29.3,14.7,30.02,NNW,330,0.0,0.0,54,0.00,,---,0.00,VWS V14.01,2013-02-08 01:26:00,
2013-02-07 18:31:00,28.6,15.3,30.02,NNW,330,0.0,0.0,57,0.00,,---,0.00,VWS V14.01,2013-02-08 01:31:00,
2013-02-07 18:36:00,28.0,14.0,30.05,NNW,330,0.0,0.0,55,0.00,,---,0.00,VWS V14.01,2013-02-08 01:36:00,
2013-02-07 18:42:00,27.5,13.1,30.05,NNW,330,0.0,0.0,54,0.00,,---,0.00,VWS V14.01,2013-02-08 01:42:00,
2013-02-07 18:48:00,27.0,12.1,30.05,NNW,330,0.0,0.0,53,0.00,,---,0.00,VWS V14.01,2013-02-08 01:48:00,
2013-02-07 18:53:00,26.8,12.4,30.02,NNW,330,0.0,0.0,54,0.00,,---,0.00,VWS V14.01,2013-02-08 01:53:00,
2013-02-07 18:58:00,26.6,12.2,30.02,NNW,330,0.0,0.0,54,0.00,,---,0.00,VWS V14.01,2013-02-08 01:58:00,
2013-02-07 19:04:00,26.1,12.1,30.05,NNW,330,0.0,0.0,55,0.00,,---,0.00,VWS V14.01,2013-02-08 02:04:00,
2013-02-07 19:09:00,25.9,11.9,30.05,NNW,330,0.0,0.0,55,0.00,,---,0.00,VWS V14.01,2013-02-08 02:09:00,
2013-02-07 19:14:00,25.5,11.6,30.05,NNW,330,0.0,0.0,55,0.00,,---,0.00,VWS V14.01,2013-02-08 02:14:00,
2013-02-07 19:19:00,25.2,11.7,30.05,NNW,330,0.0,0.0,56,0.00,,---,0.00,VWS V14.01,2013-02-08 02:19:00,
2013-02-07 19:24:00,25.0,11.1,30.05,WNW,301,0.0,0.0,55,0.00,,---,0.00,VWS V14.01,2013-02-08 02:24:00,
2013-02-07 19:30:00,24.4,10.6,30.05,SW,235,4.0,4.0,55,0.00,,---,0.00,VWS V14.01,2013-02-08 02:30:00,
2013-02-07 19:35:00,23.7,9.5,30.02,South,185,3.1,4.0,54,0.00,,---,0.00,VWS V14.01,2013-02-08 02:35:00,
2013-02-07 19:40:00,23.2,8.6,30.02,South,170,3.1,5.8,53,0.00,,---,0.00,VWS V14.01,2013-02-08 02:40:00,
2013-02-07 19:45:00,22.8,7.8,30.02,SSE,161,3.6,4.0,52,0.00,,---,0.00,VWS V14.01,2013-02-08 02:45:00,
2013-02-07 19:50:00,22.5,7.5,30.02,South,189,3.1,4.0,52,0.00,,---,0.00,VWS V14.01,2013-02-08 02:50:00,
2013-02-07 19:56:00,22.1,7.2,30.02,South,190,0.0,0.0,52,0.00,,---,0.00,VWS V14.01,2013-02-08 02:56:00,
2013-02-07 20:01:00,21.9,7.4,30.02,SSW,192,5.4,5.4,53,0.00,,---,0.00,VWS V14.01,2013-02-08 03:01:00,
2013-02-07 20:07:00,21.4,6.5,30.05,ESE,118,0.0,3.1,52,0.00,,---,0.00,VWS V14.01,2013-02-08 03:07:00,
2013-02-07 20:12:00,21.2,5.9,30.05,South,177,5.8,6.7,51,0.00,,---,0.00,VWS V14.01,2013-02-08 03:12:00,
2013-02-07 20:18:00,21.2,5.5,30.05,South,184,3.1,4.0,50,0.00,,---,0.00,VWS V14.01,2013-02-08 03:18:00,
2013-02-07 20:23:00,20.8,5.1,30.05,South,172,3.1,5.4,50,0.00,,---,0.00,VWS V14.01,2013-02-08 03:23:00,
2013-02-07 20:29:00,20.5,4.4,30.05,South,189,0.0,5.4,49,0.00,,---,0.00,VWS V14.01,2013-02-08 03:29:00,
2013-02-07 20:35:00,20.3,4.6,30.05,South,191,0.0,4.0,50,0.00,,---,0.00,VWS V14.01,2013-02-08 03:35:00,
2013-02-07 20:40:00,20.3,5.1,30.05,South,177,5.4,7.6,51,0.00,,---,0.00,VWS V14.01,2013-02-08 03:40:00,
2013-02-07 20:46:00,20.1,4.9,30.05,SSE,168,4.0,6.3,51,0.00,,---,0.00,VWS V14.01,2013-02-08 03:46:00,
2013-02-07 20:51:00,19.9,5.2,30.05,South,191,0.0,0.0,52,0.00,,---,0.00,VWS V14.01,2013-02-08 03:51:00,
2013-02-07 20:56:00,20.1,5.3,30.05,SSE,164,0.0,0.0,52,0.00,,---,0.00,VWS V14.01,2013-02-08 03:56:00,
2013-02-07 21:01:00,20.3,5.9,30.05,SSW,193,2.7,3.6,53,0.00,,---,0.00,VWS V14.01,2013-02-08 04:01:00,
2013-02-07 21:06:00,20.5,5.7,30.05,SSW,192,3.1,3.1,52,0.00,,---,0.00,VWS V14.01,2013-02-08 04:06:00,
2013-02-07 21:11:00,20.3,5.5,30.05,South,191,4.9,5.8,52,0.00,,---,0.00,VWS V14.01,2013-02-08 04:11:00,
2013-02-07 21:17:00,20.3,5.9,30.05,SSW,198,2.7,3.6,53,0.00,,---,0.00,VWS V14.01,2013-02-08 04:17:00,
2013-02-07 21:23:00,20.3,5.9,30.05,SSW,213,0.0,4.0,53,0.00,,---,0.00,VWS V14.01,2013-02-08 04:23:00,
2013-02-07 21:29:00,20.3,5.5,30.05,SW,217,0.0,0.0,52,0.00,,---,0.00,VWS V14.01,2013-02-08 04:29:00,
2013-02-07 21:34:00,20.3,5.5,30.05,SW,217,0.0,0.0,52,0.00,,---,0.00,VWS V14.01,2013-02-08 04:34:00,
2013-02-07 21:39:00,20.1,5.3,30.05,SSW,211,2.7,2.7,52,0.00,,---,0.00,VWS V14.01,2013-02-08 04:39:00,
2013-02-07 21:45:00,19.9,4.7,30.05,SW,216,0.0,0.0,51,0.00,,---,0.00,VWS V14.01,2013-02-08 04:45:00,
2013-02-07 21:50:00,19.9,5.2,30.05,SW,216,0.0,0.0,52,0.00,,---,0.00,VWS V14.01,2013-02-08 04:50:00,
2013-02-07 21:56:00,19.8,4.6,30.05,WSW,256,3.1,3.1,51,0.00,,---,0.00,VWS V14.01,2013-02-08 04:56:00,
2013-02-07 22:00:00,19.6,4.4,30.05,WSW,249,0.0,0.0,51,0.00,,---,0.00,VWS V14.01,2013-02-08 05:00:00,
2013-02-07 22:01:00,19.6,4.4,30.05,WSW,248,0.0,0.0,51,0.00,,---,0.00,VWS V14.01,2013-02-08 05:01:00,
2013-02-07 22:05:00,19.4,4.2,30.02,WNW,283,0.0,0.0,51,0.00,,---,0.00,VWS V14.01,2013-02-08 05:05:00,
2013-02-07 22:07:00,19.2,4.1,30.02,WNW,285,0.0,0.0,51,0.00,,---,0.00,VWS V14.01,2013-02-08 05:07:00,
2013-02-07 22:12:00,19.2,3.2,30.02,SW,221,3.1,4.0,49,0.00,,---,0.00,VWS V14.01,2013-02-08 05:12:00,
2013-02-07 22:18:00,19.2,3.6,30.02,WSW,238,3.1,3.6,50,0.00,,---,0.00,VWS V14.01,2013-02-08 05:18:00,
2013-02-07 22:24:00,19.2,3.2,30.02,WSW,239,3.1,3.1,49,0.00,,---,0.00,VWS V14.01,2013-02-08 05:24:00,
2013-02-07 22:29:00,19.4,3.4,30.02,WSW,252,8.3,9.6,49,0.00,,---,0.00,VWS V14.01,2013-02-08 05:29:00,
2013-02-07 22:35:00,20.1,2.7,30.02,WSW,248,5.8,5.8,46,0.00,,---,0.00,VWS V14.01,2013-02-08 05:35:00,
2013-02-07 22:41:00,21.0,3.5,30.02,SW,235,4.0,7.6,46,0.00,,---,0.00,VWS V14.01,2013-02-08 05:41:00,
2013-02-07 22:46:00,21.6,4.0,30.02,SW,228,5.4,5.4,46,0.00,,---,0.00,VWS V14.01,2013-02-08 05:46:00,
2013-02-07 22:52:00,21.7,4.2,30.02,SSW,204,8.1,8.1,46,0.00,,---,0.00,VWS V14.01,2013-02-08 05:52:00,
2013-02-07 22:57:00,22.1,4.5,30.02,SSW,209,3.1,4.0,46,0.00,,---,0.00,VWS V14.01,2013-02-08 05:57:00,
2013-02-07 23:02:00,21.9,4.3,30.02,SW,214,3.6,6.3,46,0.00,,---,0.00,VWS V14.01,2013-02-08 06:02:00,
2013-02-07 23:08:00,22.1,4.0,30.02,SW,232,3.6,8.1,45,0.00,,---,0.00,VWS V14.01,2013-02-08 06:08:00,
2013-02-07 23:13:00,21.9,3.8,30.02,SSE,155,6.3,7.6,45,0.00,,---,0.00,VWS V14.01,2013-02-08 06:13:00,
2013-02-07 23:18:00,21.9,3.8,30.02,SW,217,7.6,7.6,45,0.00,,---,0.00,VWS V14.01,2013-02-08 06:18:00,
2013-02-07 23:24:00,21.9,3.8,30.02,SW,231,2.7,4.0,45,0.00,,---,0.00,VWS V14.01,2013-02-08 06:24:00,
2013-02-07 23:30:00,21.7,3.2,30.02,South,191,5.4,8.1,44,0.00,,---,0.00,VWS V14.01,2013-02-08 06:30:00,
2013-02-07 23:35:00,21.9,3.4,30.02,SW,214,5.4,5.4,44,0.00,,---,0.00,VWS V14.01,2013-02-08 06:35:00,
2013-02-07 23:40:00,21.9,3.4,30.02,SW,222,6.3,6.3,44,0.00,,---,0.00,VWS V14.01,2013-02-08 06:40:00,
2013-02-07 23:45:00,21.9,3.8,30.02,SSW,201,4.0,8.1,45,0.00,,---,0.00,VWS V14.01,2013-02-08 06:45:00,
2013-02-07 23:51:00,21.9,3.8,30.02,SSW,203,7.2,7.2,45,0.00,,---,0.00,VWS V14.01,2013-02-08 06:51:00,
2013-02-07 23:56:00,21.9,3.8,30.02,SW,235,0.0,2.2,45,0.00,,---,0.00,VWS V14.01,2013-02-08 06:56:00,